sensor_id;sensor_type;location;lat;lon;timestamp;P1;durP1;ratioP1;P2;durP2;ratioP2
46729;SDS011;32476;50.002;11.854;2024-01-15T00:01:57;50.60;;;19.37;;
46729;SDS011;32476;50.002;11.854;2024-01-15T00:04:23;49.90;;;19.23;;
46729;SDS011;32476;50.002;11.854;2024-01-15T00:06:49;56.20;;;21.37;;
46729;SDS011;32476;50.002;11.854;2024-01-15T00:09:17;51.30;;;19.93;;
46729;SDS011;32476;50.002;11.854;2024-01-15T00:11:43;56.83;;;19.70;;
46729;SDS011;32476;50.002;11.854;2024-01-15T00:14:09;49.93;;;19.63;;
46729;SDS011;32476;50.002;11.854;2024-01-15T00:16:36;47.67;;;18.43;;
46729;SDS011;32476;50.002;11.854;2024-01-15T00:19:02;48.30;;;19.30;;
46729;SDS011;32476;50.002;11.854;2024-01-15T00:21:28;45.03;;;19.13;;
46729;SDS011;32476;50.002;11.854;2024-01-15T00:23:56;46.67;;;17.57;;
46729;SDS011;32476;50.002;11.854;2024-01-15T00:26:22;47.20;;;18.60;;
46729;SDS011;32476;50.002;11.854;2024-01-15T00:28:48;53.93;;;19.50;;
46729;SDS011;32476;50.002;11.854;2024-01-15T00:31:16;53.27;;;19.00;;
46729;SDS011;32476;50.002;11.854;2024-01-15T00:33:43;45.83;;;18.30;;
46729;SDS011;32476;50.002;11.854;2024-01-15T00:36:09;49.87;;;17.93;;
46729;SDS011;32476;50.002;11.854;2024-01-15T00:38:36;50.97;;;19.33;;
46729;SDS011;32476;50.002;11.854;2024-01-15T00:41:02;52.13;;;19.17;;
46729;SDS011;32476;50.002;11.854;2024-01-15T00:43:29;48.47;;;19.33;;
46729;SDS011;32476;50.002;11.854;2024-01-15T00:45:56;58.27;;;19.67;;
46729;SDS011;32476;50.002;11.854;2024-01-15T00:48:22;50.50;;;20.10;;
46729;SDS011;32476;50.002;11.854;2024-01-15T00:50:48;49.23;;;20.47;;
46729;SDS011;32476;50.002;11.854;2024-01-15T00:53:15;51.00;;;20.60;;
46729;SDS011;32476;50.002;11.854;2024-01-15T00:55:41;56.80;;;20.27;;
46729;SDS011;32476;50.002;11.854;2024-01-15T00:58:07;50.50;;;20.30;;
46729;SDS011;32476;50.002;11.854;2024-01-15T01:00:34;50.33;;;19.50;;
46729;SDS011;32476;50.002;11.854;2024-01-15T01:03:02;51.07;;;19.97;;
46729;SDS011;32476;50.002;11.854;2024-01-15T01:05:28;47.47;;;19.90;;
46729;SDS011;32476;50.002;11.854;2024-01-15T01:07:55;63.23;;;21.77;;
46729;SDS011;32476;50.002;11.854;2024-01-15T01:10:21;53.07;;;19.60;;
46729;SDS011;32476;50.002;11.854;2024-01-15T01:12:47;61.07;;;18.87;;
46729;SDS011;32476;50.002;11.854;2024-01-15T01:15:14;61.67;;;21.30;;
46729;SDS011;32476;50.002;11.854;2024-01-15T01:17:40;58.17;;;20.87;;
46729;SDS011;32476;50.002;11.854;2024-01-15T01:20:06;72.90;;;22.30;;
46729;SDS011;32476;50.002;11.854;2024-01-15T01:22:36;62.10;;;20.43;;
46729;SDS011;32476;50.002;11.854;2024-01-15T01:25:02;73.33;;;21.50;;
46729;SDS011;32476;50.002;11.854;2024-01-15T01:27:28;94.13;;;22.17;;
46729;SDS011;32476;50.002;11.854;2024-01-15T01:29:56;69.33;;;21.70;;
46729;SDS011;32476;50.002;11.854;2024-01-15T01:32:21;66.43;;;20.53;;
46729;SDS011;32476;50.002;11.854;2024-01-15T01:34:47;68.43;;;22.00;;
46729;SDS011;32476;50.002;11.854;2024-01-15T01:37:15;59.47;;;21.43;;
46729;SDS011;32476;50.002;11.854;2024-01-15T01:39:41;70.37;;;21.87;;
46729;SDS011;32476;50.002;11.854;2024-01-15T01:42:08;57.60;;;19.23;;
46729;SDS011;32476;50.002;11.854;2024-01-15T01:44:36;51.03;;;18.80;;
46729;SDS011;32476;50.002;11.854;2024-01-15T01:47:01;47.53;;;18.80;;
46729;SDS011;32476;50.002;11.854;2024-01-15T01:49:29;51.97;;;18.73;;
46729;SDS011;32476;50.002;11.854;2024-01-15T01:51:57;47.50;;;17.67;;
46729;SDS011;32476;50.002;11.854;2024-01-15T01:54:24;36.00;;;13.87;;
46729;SDS011;32476;50.002;11.854;2024-01-15T01:56:53;36.30;;;13.17;;
46729;SDS011;32476;50.002;11.854;2024-01-15T01:59:20;28.87;;;12.70;;
46729;SDS011;32476;50.002;11.854;2024-01-15T02:01:48;42.17;;;14.00;;
46729;SDS011;32476;50.002;11.854;2024-01-15T02:04:15;49.87;;;15.03;;
46729;SDS011;32476;50.002;11.854;2024-01-15T02:06:44;52.67;;;17.10;;
46729;SDS011;32476;50.002;11.854;2024-01-15T02:09:11;48.60;;;17.20;;
46729;SDS011;32476;50.002;11.854;2024-01-15T02:11:40;57.30;;;16.97;;
46729;SDS011;32476;50.002;11.854;2024-01-15T02:14:09;55.27;;;17.43;;
46729;SDS011;32476;50.002;11.854;2024-01-15T02:16:35;54.50;;;18.30;;
46729;SDS011;32476;50.002;11.854;2024-01-15T02:19:01;52.27;;;17.97;;
46729;SDS011;32476;50.002;11.854;2024-01-15T02:21:29;61.30;;;19.07;;
46729;SDS011;32476;50.002;11.854;2024-01-15T02:23:56;52.93;;;17.33;;
46729;SDS011;32476;50.002;11.854;2024-01-15T02:26:22;50.00;;;18.73;;
46729;SDS011;32476;50.002;11.854;2024-01-15T02:28:50;52.23;;;17.80;;
46729;SDS011;32476;50.002;11.854;2024-01-15T02:31:17;55.90;;;19.10;;
46729;SDS011;32476;50.002;11.854;2024-01-15T02:33:43;54.43;;;19.10;;
46729;SDS011;32476;50.002;11.854;2024-01-15T02:36:12;58.97;;;18.80;;
46729;SDS011;32476;50.002;11.854;2024-01-15T02:38:38;60.17;;;17.77;;
46729;SDS011;32476;50.002;11.854;2024-01-15T02:41:04;62.30;;;18.20;;
46729;SDS011;32476;50.002;11.854;2024-01-15T02:43:32;59.20;;;18.73;;
46729;SDS011;32476;50.002;11.854;2024-01-15T02:45:58;56.93;;;18.30;;
46729;SDS011;32476;50.002;11.854;2024-01-15T02:48:23;63.97;;;20.07;;
46729;SDS011;32476;50.002;11.854;2024-01-15T02:50:51;57.40;;;18.67;;
46729;SDS011;32476;50.002;11.854;2024-01-15T02:53:17;63.93;;;19.80;;
46729;SDS011;32476;50.002;11.854;2024-01-15T02:55:43;63.53;;;18.47;;
46729;SDS011;32476;50.002;11.854;2024-01-15T02:58:10;66.40;;;19.67;;
46729;SDS011;32476;50.002;11.854;2024-01-15T03:00:36;63.60;;;19.37;;
46729;SDS011;32476;50.002;11.854;2024-01-15T03:03:02;60.20;;;19.07;;
46729;SDS011;32476;50.002;11.854;2024-01-15T03:05:30;56.10;;;19.67;;
46729;SDS011;32476;50.002;11.854;2024-01-15T03:07:56;56.03;;;18.40;;
46729;SDS011;32476;50.002;11.854;2024-01-15T03:10:22;62.07;;;20.60;;
46729;SDS011;32476;50.002;11.854;2024-01-15T03:12:50;58.80;;;18.50;;
46729;SDS011;32476;50.002;11.854;2024-01-15T03:15:16;64.07;;;19.70;;
46729;SDS011;32476;50.002;11.854;2024-01-15T03:17:43;57.97;;;20.50;;
46729;SDS011;32476;50.002;11.854;2024-01-15T03:20:11;60.97;;;19.23;;
46729;SDS011;32476;50.002;11.854;2024-01-15T03:22:37;65.27;;;20.27;;
46729;SDS011;32476;50.002;11.854;2024-01-15T03:25:03;59.07;;;20.30;;
46729;SDS011;32476;50.002;11.854;2024-01-15T03:27:31;56.90;;;19.87;;
46729;SDS011;32476;50.002;11.854;2024-01-15T03:29:57;57.13;;;18.73;;
46729;SDS011;32476;50.002;11.854;2024-01-15T03:32:23;64.57;;;21.27;;
46729;SDS011;32476;50.002;11.854;2024-01-15T03:34:51;60.63;;;19.83;;
46729;SDS011;32476;50.002;11.854;2024-01-15T03:37:17;67.23;;;19.40;;
46729;SDS011;32476;50.002;11.854;2024-01-15T03:39:44;57.70;;;20.30;;
46729;SDS011;32476;50.002;11.854;2024-01-15T03:42:12;56.30;;;18.27;;
46729;SDS011;32476;50.002;11.854;2024-01-15T03:44:39;59.47;;;18.70;;
46729;SDS011;32476;50.002;11.854;2024-01-15T03:47:05;65.70;;;20.43;;
46729;SDS011;32476;50.002;11.854;2024-01-15T03:49:33;67.07;;;19.90;;
46729;SDS011;32476;50.002;11.854;2024-01-15T03:51:59;66.47;;;19.30;;
46729;SDS011;32476;50.002;11.854;2024-01-15T03:54:24;66.47;;;21.17;;
46729;SDS011;32476;50.002;11.854;2024-01-15T03:56:53;53.33;;;19.93;;
46729;SDS011;32476;50.002;11.854;2024-01-15T03:59:19;73.27;;;19.97;;
46729;SDS011;32476;50.002;11.854;2024-01-15T04:01:48;63.47;;;20.97;;
46729;SDS011;32476;50.002;11.854;2024-01-15T04:04:17;62.90;;;20.63;;
46729;SDS011;32476;50.002;11.854;2024-01-15T04:06:44;49.50;;;18.80;;
46729;SDS011;32476;50.002;11.854;2024-01-15T04:09:09;61.17;;;19.63;;
46729;SDS011;32476;50.002;11.854;2024-01-15T04:11:39;64.60;;;21.60;;
46729;SDS011;32476;50.002;11.854;2024-01-15T04:14:05;59.50;;;18.53;;
46729;SDS011;32476;50.002;11.854;2024-01-15T04:16:31;52.70;;;17.97;;
46729;SDS011;32476;50.002;11.854;2024-01-15T04:18:58;60.83;;;20.17;;
46729;SDS011;32476;50.002;11.854;2024-01-15T04:21:24;53.90;;;18.23;;
46729;SDS011;32476;50.002;11.854;2024-01-15T04:23:50;58.10;;;17.30;;
46729;SDS011;32476;50.002;11.854;2024-01-15T04:26:18;49.60;;;17.23;;
46729;SDS011;32476;50.002;11.854;2024-01-15T04:28:44;46.57;;;16.07;;
46729;SDS011;32476;50.002;11.854;2024-01-15T04:31:09;43.50;;;15.60;;
46729;SDS011;32476;50.002;11.854;2024-01-15T04:33:51;46.77;;;16.57;;
46729;SDS011;32476;50.002;11.854;2024-01-15T04:36:17;43.03;;;14.83;;
46729;SDS011;32476;50.002;11.854;2024-01-15T04:38:43;46.07;;;15.43;;
46729;SDS011;32476;50.002;11.854;2024-01-15T04:41:13;40.50;;;14.23;;
46729;SDS011;32476;50.002;11.854;2024-01-15T04:43:39;40.80;;;14.17;;
46729;SDS011;32476;50.002;11.854;2024-01-15T04:46:06;38.20;;;14.00;;
46729;SDS011;32476;50.002;11.854;2024-01-15T04:48:34;39.43;;;15.20;;
46729;SDS011;32476;50.002;11.854;2024-01-15T04:51:00;37.97;;;15.07;;
46729;SDS011;32476;50.002;11.854;2024-01-15T04:53:26;38.27;;;14.00;;
46729;SDS011;32476;50.002;11.854;2024-01-15T04:55:53;37.70;;;13.77;;
46729;SDS011;32476;50.002;11.854;2024-01-15T04:58:19;40.67;;;15.97;;
46729;SDS011;32476;50.002;11.854;2024-01-15T05:00:45;41.20;;;16.23;;
46729;SDS011;32476;50.002;11.854;2024-01-15T05:03:13;42.43;;;15.03;;
46729;SDS011;32476;50.002;11.854;2024-01-15T05:05:39;37.70;;;15.53;;
46729;SDS011;32476;50.002;11.854;2024-01-15T05:08:05;44.30;;;15.77;;
46729;SDS011;32476;50.002;11.854;2024-01-15T05:10:32;46.30;;;16.83;;
46729;SDS011;32476;50.002;11.854;2024-01-15T05:12:58;46.87;;;16.67;;
46729;SDS011;32476;50.002;11.854;2024-01-15T05:15:24;47.57;;;16.47;;
46729;SDS011;32476;50.002;11.854;2024-01-15T05:17:52;54.30;;;18.07;;
46729;SDS011;32476;50.002;11.854;2024-01-15T05:20:17;56.23;;;19.23;;
46729;SDS011;32476;50.002;11.854;2024-01-15T05:22:43;47.57;;;17.17;;
46729;SDS011;32476;50.002;11.854;2024-01-15T05:25:11;46.27;;;17.80;;
46729;SDS011;32476;50.002;11.854;2024-01-15T05:27:37;45.33;;;16.70;;
46729;SDS011;32476;50.002;11.854;2024-01-15T05:30:03;43.30;;;17.40;;
46729;SDS011;32476;50.002;11.854;2024-01-15T05:32:31;42.97;;;16.10;;
46729;SDS011;32476;50.002;11.854;2024-01-15T05:34:57;44.43;;;16.93;;
46729;SDS011;32476;50.002;11.854;2024-01-15T05:37:23;46.77;;;16.67;;
46729;SDS011;32476;50.002;11.854;2024-01-15T05:39:52;44.00;;;15.37;;
46729;SDS011;32476;50.002;11.854;2024-01-15T05:42:18;41.67;;;15.77;;
46729;SDS011;32476;50.002;11.854;2024-01-15T05:44:44;41.13;;;15.60;;
46729;SDS011;32476;50.002;11.854;2024-01-15T05:47:11;47.40;;;14.57;;
46729;SDS011;32476;50.002;11.854;2024-01-15T05:49:37;36.47;;;14.90;;
46729;SDS011;32476;50.002;11.854;2024-01-15T05:52:04;34.63;;;13.13;;
46729;SDS011;32476;50.002;11.854;2024-01-15T05:54:31;26.53;;;11.03;;
46729;SDS011;32476;50.002;11.854;2024-01-15T05:56:57;28.93;;;11.47;;
46729;SDS011;32476;50.002;11.854;2024-01-15T05:59:23;24.03;;;11.13;;
46729;SDS011;32476;50.002;11.854;2024-01-15T06:01:51;31.37;;;11.67;;
46729;SDS011;32476;50.002;11.854;2024-01-15T06:04:16;33.13;;;13.03;;
46729;SDS011;32476;50.002;11.854;2024-01-15T06:06:43;33.07;;;12.77;;
46729;SDS011;32476;50.002;11.854;2024-01-15T06:09:10;36.10;;;13.10;;
46729;SDS011;32476;50.002;11.854;2024-01-15T06:11:36;33.10;;;13.80;;
46729;SDS011;32476;50.002;11.854;2024-01-15T06:14:02;41.93;;;14.23;;
46729;SDS011;32476;50.002;11.854;2024-01-15T06:16:29;38.57;;;14.27;;
46729;SDS011;32476;50.002;11.854;2024-01-15T06:18:55;37.80;;;14.53;;
46729;SDS011;32476;50.002;11.854;2024-01-15T06:21:21;35.63;;;14.57;;
46729;SDS011;32476;50.002;11.854;2024-01-15T06:23:48;36.13;;;15.10;;
46729;SDS011;32476;50.002;11.854;2024-01-15T06:26:14;27.80;;;12.53;;
46729;SDS011;32476;50.002;11.854;2024-01-15T06:28:40;29.77;;;13.13;;
46729;SDS011;32476;50.002;11.854;2024-01-15T06:31:08;31.57;;;12.67;;
46729;SDS011;32476;50.002;11.854;2024-01-15T06:33:34;25.67;;;10.90;;
46729;SDS011;32476;50.002;11.854;2024-01-15T06:36:00;26.43;;;11.70;;
46729;SDS011;32476;50.002;11.854;2024-01-15T06:38:27;28.03;;;11.27;;
46729;SDS011;32476;50.002;11.854;2024-01-15T06:40:53;29.03;;;11.70;;
46729;SDS011;32476;50.002;11.854;2024-01-15T06:43:19;26.50;;;10.23;;
46729;SDS011;32476;50.002;11.854;2024-01-15T06:45:46;28.90;;;11.83;;
46729;SDS011;32476;50.002;11.854;2024-01-15T06:48:12;29.63;;;12.73;;
46729;SDS011;32476;50.002;11.854;2024-01-15T06:50:41;30.37;;;11.23;;
46729;SDS011;32476;50.002;11.854;2024-01-15T06:53:10;29.67;;;11.80;;
46729;SDS011;32476;50.002;11.854;2024-01-15T06:55:37;30.67;;;11.43;;
46729;SDS011;32476;50.002;11.854;2024-01-15T06:58:03;31.47;;;12.37;;
46729;SDS011;32476;50.002;11.854;2024-01-15T07:00:30;33.20;;;13.10;;
46729;SDS011;32476;50.002;11.854;2024-01-15T07:02:56;31.50;;;13.13;;
46729;SDS011;32476;50.002;11.854;2024-01-15T07:05:23;33.43;;;13.57;;
46729;SDS011;32476;50.002;11.854;2024-01-15T07:07:50;33.63;;;12.80;;
46729;SDS011;32476;50.002;11.854;2024-01-15T07:10:16;31.87;;;13.33;;
46729;SDS011;32476;50.002;11.854;2024-01-15T07:12:42;29.77;;;12.63;;
46729;SDS011;32476;50.002;11.854;2024-01-15T07:15:11;31.57;;;12.60;;
46729;SDS011;32476;50.002;11.854;2024-01-15T07:17:36;34.07;;;13.07;;
46729;SDS011;32476;50.002;11.854;2024-01-15T07:20:08;30.20;;;13.27;;
46729;SDS011;32476;50.002;11.854;2024-01-15T07:22:37;33.93;;;13.93;;
46729;SDS011;32476;50.002;11.854;2024-01-15T07:25:04;37.17;;;13.83;;
46729;SDS011;32476;50.002;11.854;2024-01-15T07:27:31;35.03;;;11.90;;
46729;SDS011;32476;50.002;11.854;2024-01-15T07:29:59;43.40;;;15.07;;
46729;SDS011;32476;50.002;11.854;2024-01-15T07:32:25;39.70;;;13.97;;
46729;SDS011;32476;50.002;11.854;2024-01-15T07:34:51;39.17;;;14.50;;
46729;SDS011;32476;50.002;11.854;2024-01-15T07:37:19;34.23;;;14.93;;
46729;SDS011;32476;50.002;11.854;2024-01-15T07:39:45;33.07;;;14.17;;
46729;SDS011;32476;50.002;11.854;2024-01-15T07:42:11;38.50;;;14.90;;
46729;SDS011;32476;50.002;11.854;2024-01-15T07:44:38;36.97;;;15.33;;
46729;SDS011;32476;50.002;11.854;2024-01-15T07:47:04;36.73;;;13.87;;
46729;SDS011;32476;50.002;11.854;2024-01-15T07:49:30;31.33;;;12.63;;
46729;SDS011;32476;50.002;11.854;2024-01-15T07:51:58;31.67;;;13.30;;
46729;SDS011;32476;50.002;11.854;2024-01-15T07:54:24;36.73;;;13.43;;
46729;SDS011;32476;50.002;11.854;2024-01-15T07:56:54;37.83;;;14.97;;
46729;SDS011;32476;50.002;11.854;2024-01-15T07:59:25;35.07;;;13.67;;
46729;SDS011;32476;50.002;11.854;2024-01-15T08:01:52;39.00;;;14.50;;
46729;SDS011;32476;50.002;11.854;2024-01-15T08:04:19;36.27;;;14.23;;
46729;SDS011;32476;50.002;11.854;2024-01-15T08:06:47;36.53;;;14.43;;
46729;SDS011;32476;50.002;11.854;2024-01-15T08:09:13;34.03;;;13.73;;
46729;SDS011;32476;50.002;11.854;2024-01-15T08:11:39;34.53;;;13.37;;
46729;SDS011;32476;50.002;11.854;2024-01-15T08:14:10;29.60;;;13.73;;
46729;SDS011;32476;50.002;11.854;2024-01-15T08:16:36;33.33;;;14.33;;
46729;SDS011;32476;50.002;11.854;2024-01-15T08:19:03;39.23;;;15.83;;
46729;SDS011;32476;50.002;11.854;2024-01-15T08:21:30;37.03;;;14.73;;
46729;SDS011;32476;50.002;11.854;2024-01-15T08:24:00;36.87;;;14.07;;
46729;SDS011;32476;50.002;11.854;2024-01-15T08:26:28;34.63;;;13.97;;
46729;SDS011;32476;50.002;11.854;2024-01-15T08:28:56;35.23;;;14.50;;
46729;SDS011;32476;50.002;11.854;2024-01-15T08:31:22;35.17;;;14.10;;
46729;SDS011;32476;50.002;11.854;2024-01-15T08:33:48;33.60;;;13.90;;
46729;SDS011;32476;50.002;11.854;2024-01-15T08:36:15;32.43;;;13.27;;
46729;SDS011;32476;50.002;11.854;2024-01-15T08:38:41;38.63;;;14.20;;
46729;SDS011;32476;50.002;11.854;2024-01-15T08:41:07;37.87;;;14.37;;
46729;SDS011;32476;50.002;11.854;2024-01-15T08:43:36;63.33;;;13.97;;
46729;SDS011;32476;50.002;11.854;2024-01-15T08:46:02;42.40;;;15.23;;
46729;SDS011;32476;50.002;11.854;2024-01-15T08:48:28;36.43;;;14.10;;
46729;SDS011;32476;50.002;11.854;2024-01-15T08:50:56;36.87;;;14.73;;
46729;SDS011;32476;50.002;11.854;2024-01-15T08:53:22;34.50;;;15.30;;
46729;SDS011;32476;50.002;11.854;2024-01-15T08:55:49;39.17;;;13.67;;
46729;SDS011;32476;50.002;11.854;2024-01-15T08:58:16;35.33;;;13.40;;
46729;SDS011;32476;50.002;11.854;2024-01-15T09:00:43;36.30;;;14.10;;
46729;SDS011;32476;50.002;11.854;2024-01-15T09:03:09;29.97;;;14.43;;
46729;SDS011;32476;50.002;11.854;2024-01-15T09:05:36;32.87;;;13.47;;
46729;SDS011;32476;50.002;11.854;2024-01-15T09:08:02;37.27;;;13.80;;
46729;SDS011;32476;50.002;11.854;2024-01-15T09:10:29;33.30;;;14.30;;
46729;SDS011;32476;50.002;11.854;2024-01-15T09:12:57;40.47;;;14.07;;
46729;SDS011;32476;50.002;11.854;2024-01-15T09:15:22;34.33;;;13.10;;
46729;SDS011;32476;50.002;11.854;2024-01-15T09:17:49;29.33;;;12.67;;
46729;SDS011;32476;50.002;11.854;2024-01-15T09:20:16;31.40;;;13.50;;
46729;SDS011;32476;50.002;11.854;2024-01-15T09:22:43;28.73;;;13.10;;
46729;SDS011;32476;50.002;11.854;2024-01-15T09:25:10;29.70;;;12.03;;
46729;SDS011;32476;50.002;11.854;2024-01-15T09:27:38;27.13;;;12.67;;
46729;SDS011;32476;50.002;11.854;2024-01-15T09:30:04;28.83;;;12.73;;
46729;SDS011;32476;50.002;11.854;2024-01-15T09:32:31;32.83;;;12.90;;
46729;SDS011;32476;50.002;11.854;2024-01-15T09:34:59;30.33;;;12.83;;
46729;SDS011;32476;50.002;11.854;2024-01-15T09:37:25;33.07;;;13.03;;
46729;SDS011;32476;50.002;11.854;2024-01-15T09:39:51;31.80;;;13.40;;
46729;SDS011;32476;50.002;11.854;2024-01-15T09:42:19;33.67;;;14.03;;
46729;SDS011;32476;50.002;11.854;2024-01-15T09:44:45;36.77;;;12.97;;
46729;SDS011;32476;50.002;11.854;2024-01-15T09:47:12;34.70;;;14.80;;
46729;SDS011;32476;50.002;11.854;2024-01-15T09:49:40;34.40;;;13.97;;
46729;SDS011;32476;50.002;11.854;2024-01-15T09:52:06;29.90;;;13.80;;
46729;SDS011;32476;50.002;11.854;2024-01-15T09:54:33;30.20;;;13.77;;
46729;SDS011;32476;50.002;11.854;2024-01-15T09:57:01;32.40;;;14.07;;
46729;SDS011;32476;50.002;11.854;2024-01-15T09:59:27;31.90;;;13.40;;
46729;SDS011;32476;50.002;11.854;2024-01-15T10:01:54;30.40;;;14.17;;
46729;SDS011;32476;50.002;11.854;2024-01-15T10:04:23;29.40;;;13.17;;
46729;SDS011;32476;50.002;11.854;2024-01-15T10:06:50;39.53;;;13.27;;
46729;SDS011;32476;50.002;11.854;2024-01-15T10:09:17;28.67;;;12.63;;
46729;SDS011;32476;50.002;11.854;2024-01-15T10:11:45;29.73;;;12.83;;
46729;SDS011;32476;50.002;11.854;2024-01-15T10:14:11;30.87;;;14.00;;
46729;SDS011;32476;50.002;11.854;2024-01-15T10:16:41;29.13;;;13.80;;
46729;SDS011;32476;50.002;11.854;2024-01-15T10:19:09;27.63;;;12.67;;
46729;SDS011;32476;50.002;11.854;2024-01-15T10:21:35;27.83;;;12.00;;
46729;SDS011;32476;50.002;11.854;2024-01-15T10:24:02;32.80;;;14.20;;
46729;SDS011;32476;50.002;11.854;2024-01-15T10:26:32;33.17;;;14.37;;
46729;SDS011;32476;50.002;11.854;2024-01-15T10:28:59;32.83;;;12.37;;
46729;SDS011;32476;50.002;11.854;2024-01-15T10:31:26;23.73;;;11.23;;
46729;SDS011;32476;50.002;11.854;2024-01-15T10:33:53;24.10;;;12.53;;
46729;SDS011;32476;50.002;11.854;2024-01-15T10:36:19;30.73;;;13.73;;
46729;SDS011;32476;50.002;11.854;2024-01-15T10:38:46;27.57;;;12.50;;
46729;SDS011;32476;50.002;11.854;2024-01-15T10:41:13;32.63;;;13.27;;
46729;SDS011;32476;50.002;11.854;2024-01-15T10:43:39;27.63;;;12.70;;
46729;SDS011;32476;50.002;11.854;2024-01-15T10:46:06;34.20;;;13.93;;
46729;SDS011;32476;50.002;11.854;2024-01-15T10:48:35;32.27;;;14.00;;
46729;SDS011;32476;50.002;11.854;2024-01-15T10:51:01;28.53;;;13.63;;
46729;SDS011;32476;50.002;11.854;2024-01-15T10:53:38;25.57;;;11.20;;
46729;SDS011;32476;50.002;11.854;2024-01-15T10:56:07;31.27;;;12.53;;
46729;SDS011;32476;50.002;11.854;2024-01-15T10:58:36;34.13;;;13.37;;
46729;SDS011;32476;50.002;11.854;2024-01-15T11:01:05;31.77;;;13.47;;
46729;SDS011;32476;50.002;11.854;2024-01-15T11:03:32;31.33;;;13.73;;
46729;SDS011;32476;50.002;11.854;2024-01-15T11:06:00;31.20;;;13.33;;
46729;SDS011;32476;50.002;11.854;2024-01-15T11:08:26;29.00;;;13.57;;
46729;SDS011;32476;50.002;11.854;2024-01-15T11:10:52;34.80;;;15.00;;
46729;SDS011;32476;50.002;11.854;2024-01-15T11:13:22;29.40;;;12.27;;
46729;SDS011;32476;50.002;11.854;2024-01-15T11:16:06;29.43;;;13.10;;
46729;SDS011;32476;50.002;11.854;2024-01-15T11:18:37;32.93;;;13.43;;
46729;SDS011;32476;50.002;11.854;2024-01-15T11:21:34;28.03;;;11.57;;
46729;SDS011;32476;50.002;11.854;2024-01-15T11:24:09;33.73;;;13.47;;
46729;SDS011;32476;50.002;11.854;2024-01-15T11:26:43;33.50;;;13.07;;
46729;SDS011;32476;50.002;11.854;2024-01-15T11:32:11;25.90;;;11.93;;
46729;SDS011;32476;50.002;11.854;2024-01-15T11:34:57;29.07;;;13.07;;
46729;SDS011;32476;50.002;11.854;2024-01-15T11:37:28;31.43;;;12.37;;
46729;SDS011;32476;50.002;11.854;2024-01-15T11:40:19;25.43;;;11.90;;
46729;SDS011;32476;50.002;11.854;2024-01-15T11:42:47;28.93;;;12.07;;
46729;SDS011;32476;50.002;11.854;2024-01-15T11:45:15;26.90;;;11.70;;
46729;SDS011;32476;50.002;11.854;2024-01-15T11:50:31;29.73;;;12.37;;
46729;SDS011;32476;50.002;11.854;2024-01-15T11:53:03;28.47;;;13.13;;
46729;SDS011;32476;50.002;11.854;2024-01-15T11:55:35;25.07;;;12.33;;
46729;SDS011;32476;50.002;11.854;2024-01-15T11:58:08;26.90;;;12.60;;
46729;SDS011;32476;50.002;11.854;2024-01-15T12:00:38;27.77;;;12.43;;
46729;SDS011;32476;50.002;11.854;2024-01-15T12:03:09;25.17;;;11.57;;
46729;SDS011;32476;50.002;11.854;2024-01-15T12:05:36;27.93;;;13.67;;
46729;SDS011;32476;50.002;11.854;2024-01-15T12:08:04;35.40;;;13.80;;
46729;SDS011;32476;50.002;11.854;2024-01-15T12:10:38;28.80;;;13.97;;
46729;SDS011;32476;50.002;11.854;2024-01-15T12:15:44;29.20;;;13.40;;
46729;SDS011;32476;50.002;11.854;2024-01-15T12:18:14;33.23;;;13.90;;
46729;SDS011;32476;50.002;11.854;2024-01-15T12:20:43;29.23;;;12.37;;
46729;SDS011;32476;50.002;11.854;2024-01-15T12:23:13;29.60;;;13.70;;
46729;SDS011;32476;50.002;11.854;2024-01-15T12:25:40;30.97;;;14.80;;
46729;SDS011;32476;50.002;11.854;2024-01-15T12:28:08;34.93;;;15.67;;
46729;SDS011;32476;50.002;11.854;2024-01-15T12:30:35;27.33;;;12.83;;
46729;SDS011;32476;50.002;11.854;2024-01-15T12:33:05;32.07;;;13.63;;
46729;SDS011;32476;50.002;11.854;2024-01-15T12:35:34;31.30;;;13.00;;
46729;SDS011;32476;50.002;11.854;2024-01-15T12:38:01;30.20;;;13.40;;
46729;SDS011;32476;50.002;11.854;2024-01-15T12:40:30;21.33;;;10.90;;
46729;SDS011;32476;50.002;11.854;2024-01-15T12:43:00;29.97;;;12.00;;
46729;SDS011;32476;50.002;11.854;2024-01-15T12:45:26;21.20;;;11.03;;
46729;SDS011;32476;50.002;11.854;2024-01-15T12:47:52;19.93;;;9.20;;
46729;SDS011;32476;50.002;11.854;2024-01-15T12:50:23;17.90;;;9.97;;
46729;SDS011;32476;50.002;11.854;2024-01-15T12:52:50;20.43;;;9.77;;
46729;SDS011;32476;50.002;11.854;2024-01-15T12:55:16;21.07;;;10.07;;
46729;SDS011;32476;50.002;11.854;2024-01-15T12:57:44;20.03;;;10.10;;
46729;SDS011;32476;50.002;11.854;2024-01-15T13:00:11;23.33;;;10.23;;
46729;SDS011;32476;50.002;11.854;2024-01-15T13:02:39;21.30;;;10.10;;
46729;SDS011;32476;50.002;11.854;2024-01-15T13:05:08;25.07;;;11.03;;
46729;SDS011;32476;50.002;11.854;2024-01-15T13:07:38;26.23;;;11.30;;
46729;SDS011;32476;50.002;11.854;2024-01-15T13:10:04;24.93;;;11.80;;
46729;SDS011;32476;50.002;11.854;2024-01-15T13:12:33;26.03;;;12.43;;
46729;SDS011;32476;50.002;11.854;2024-01-15T13:15:00;37.77;;;14.80;;
46729;SDS011;32476;50.002;11.854;2024-01-15T13:17:28;32.57;;;14.10;;
46729;SDS011;32476;50.002;11.854;2024-01-15T13:19:56;32.80;;;15.20;;
46729;SDS011;32476;50.002;11.854;2024-01-15T13:22:22;25.97;;;13.27;;
46729;SDS011;32476;50.002;11.854;2024-01-15T13:24:49;29.10;;;12.70;;
46729;SDS011;32476;50.002;11.854;2024-01-15T13:27:16;29.67;;;13.67;;
46729;SDS011;32476;50.002;11.854;2024-01-15T13:29:42;25.97;;;12.60;;
46729;SDS011;32476;50.002;11.854;2024-01-15T13:32:08;26.40;;;12.10;;
46729;SDS011;32476;50.002;11.854;2024-01-15T13:34:39;25.87;;;12.23;;
46729;SDS011;32476;50.002;11.854;2024-01-15T13:37:05;27.97;;;13.30;;
46729;SDS011;32476;50.002;11.854;2024-01-15T13:39:30;29.27;;;12.43;;
46729;SDS011;32476;50.002;11.854;2024-01-15T13:41:59;27.83;;;13.83;;
46729;SDS011;32476;50.002;11.854;2024-01-15T13:44:25;24.43;;;12.17;;
46729;SDS011;32476;50.002;11.854;2024-01-15T13:46:53;26.07;;;11.40;;
46729;SDS011;32476;50.002;11.854;2024-01-15T13:49:20;27.93;;;12.93;;
46729;SDS011;32476;50.002;11.854;2024-01-15T13:51:46;25.60;;;12.10;;
46729;SDS011;32476;50.002;11.854;2024-01-15T13:54:12;26.67;;;12.50;;
46729;SDS011;32476;50.002;11.854;2024-01-15T13:56:39;27.10;;;11.70;;
46729;SDS011;32476;50.002;11.854;2024-01-15T13:59:05;25.03;;;11.97;;
46729;SDS011;32476;50.002;11.854;2024-01-15T14:01:31;31.87;;;12.50;;
46729;SDS011;32476;50.002;11.854;2024-01-15T14:03:59;25.50;;;12.57;;
46729;SDS011;32476;50.002;11.854;2024-01-15T14:06:25;28.47;;;13.03;;
46729;SDS011;32476;50.002;11.854;2024-01-15T14:08:51;24.57;;;12.47;;
46729;SDS011;32476;50.002;11.854;2024-01-15T14:11:19;24.37;;;12.67;;
46729;SDS011;32476;50.002;11.854;2024-01-15T14:13:45;26.00;;;12.07;;
46729;SDS011;32476;50.002;11.854;2024-01-15T14:16:11;30.57;;;13.63;;
46729;SDS011;32476;50.002;11.854;2024-01-15T14:18:38;25.07;;;11.40;;